createdAt,value
2023-02-09T00:01:10.992Z,27.03
2023-02-09T00:03:39.646Z,28.50
2023-02-09T00:06:08.095Z,26.97
2023-02-09T00:08:35.952Z,26.83
2023-02-09T00:11:10.887Z,28.40
2023-02-09T00:13:37.937Z,27.27
2023-02-09T00:16:04.967Z,26.60
2023-02-09T00:18:32.423Z,27.87
2023-02-09T00:21:03.618Z,27.67
2023-02-09T00:23:31.415Z,26.83
2023-02-09T00:26:16.115Z,27.53
2023-02-09T00:28:42.722Z,25.70
2023-02-09T00:31:11.611Z,26.30
2023-02-09T00:33:38.646Z,26.37
2023-02-09T00:36:07.523Z,26.47
2023-02-09T00:38:35.081Z,28.53
2023-02-09T00:41:02.019Z,26.23
2023-02-09T00:43:28.467Z,28.53
2023-02-09T00:45:54.970Z,26.53
2023-02-09T00:48:21.493Z,26.50
2023-02-09T00:50:48.020Z,26.50
2023-02-09T00:53:14.463Z,25.73
2023-02-09T00:55:41.042Z,25.83
2023-02-09T00:58:07.487Z,24.93
2023-02-09T01:00:34.214Z,24.77
2023-02-09T01:03:00.678Z,24.20
2023-02-09T01:05:27.104Z,25.27
2023-02-09T01:07:54.062Z,25.13
2023-02-09T01:10:20.607Z,24.97
2023-02-09T01:12:47.048Z,25.83
2023-02-09T01:15:13.620Z,24.80
2023-02-09T01:17:40.512Z,23.50
2023-02-09T01:20:08.824Z,24.70
2023-02-09T01:22:38.362Z,25.40
2023-02-09T01:25:05.888Z,23.37
2023-02-09T01:27:32.453Z,24.70
2023-02-09T01:29:58.936Z,25.47
2023-02-09T01:32:25.449Z,24.13
2023-02-09T01:34:55.593Z,23.23
2023-02-09T01:37:22.118Z,22.63
2023-02-09T01:39:48.638Z,23.67
2023-02-09T01:42:17.176Z,24.07
2023-02-09T01:44:43.486Z,24.50
2023-02-09T01:47:14.738Z,22.60
2023-02-09T01:49:41.372Z,23.37
2023-02-09T01:52:12.457Z,23.77
2023-02-09T01:54:46.870Z,22.60
2023-02-09T01:57:25.354Z,21.50
2023-02-09T01:59:54.886Z,23.33
2023-02-09T02:02:22.610Z,21.70
2023-02-09T02:04:50.048Z,21.20
2023-02-09T02:07:25.674Z,22.87
2023-02-09T02:09:52.426Z,23.10
2023-02-09T02:12:18.899Z,23.10
2023-02-09T02:14:45.412Z,23.80
2023-02-09T02:17:30.798Z,22.77
2023-02-09T02:20:15.599Z,22.60
2023-02-09T02:22:59.847Z,21.90
2023-02-09T02:25:49.896Z,21.50
2023-02-09T02:28:28.622Z,21.13
2023-02-09T02:30:58.169Z,23.00
2023-02-09T02:33:52.798Z,22.03
2023-02-09T02:36:44.332Z,19.87
2023-02-09T02:39:31.224Z,22.20
2023-02-09T02:42:24.339Z,22.23
2023-02-09T02:45:06.626Z,20.20
2023-02-09T02:47:35.032Z,21.27
2023-02-09T02:50:08.474Z,20.53
2023-02-09T02:52:34.885Z,20.70
2023-02-09T02:55:06.598Z,20.80
2023-02-09T02:57:34.678Z,20.10
2023-02-09T03:00:05.377Z,20.60
2023-02-09T03:02:36.910Z,20.60
2023-02-09T03:05:05.047Z,20.70
2023-02-09T03:07:31.907Z,20.23
2023-02-09T03:09:58.794Z,19.77
2023-02-09T03:12:41.336Z,20.30
2023-02-09T03:15:17.503Z,19.13
2023-02-09T03:18:17.691Z,20.50
2023-02-09T03:20:47.535Z,20.23
2023-02-09T03:23:27.727Z,19.17
2023-02-09T03:25:56.181Z,18.47
2023-02-09T03:28:26.009Z,19.50
2023-02-09T03:30:52.950Z,17.77
2023-02-09T03:33:21.095Z,17.20
2023-02-09T03:35:51.118Z,19.30
2023-02-09T03:38:17.585Z,17.67
2023-02-09T03:40:45.213Z,18.07
2023-02-09T03:43:11.842Z,17.20
2023-02-09T03:45:38.414Z,17.00
2023-02-09T03:48:05.414Z,16.63
2023-02-09T03:50:32.794Z,15.53
2023-02-09T03:52:59.514Z,15.90
2023-02-09T03:55:26.109Z,16.70
2023-02-09T03:57:52.703Z,16.17
2023-02-09T04:00:19.452Z,15.80
2023-02-09T04:02:46.044Z,15.70
2023-02-09T04:05:12.791Z,15.73
2023-02-09T04:07:39.344Z,15.07
2023-02-09T04:10:06.439Z,15.70
2023-02-09T04:12:33.031Z,15.13
2023-02-09T04:14:59.458Z,15.23
2023-02-09T04:17:25.897Z,14.83
2023-02-09T04:19:52.464Z,13.47
2023-02-09T04:22:18.919Z,13.47
2023-02-09T04:24:45.357Z,13.23
2023-02-09T04:27:11.813Z,13.50
2023-02-09T04:29:38.390Z,14.33
2023-02-09T04:32:05.115Z,13.77
2023-02-09T04:34:31.512Z,12.13
2023-02-09T04:36:57.965Z,11.90
2023-02-09T04:39:24.407Z,12.90
2023-02-09T04:41:51.091Z,12.50
2023-02-09T04:44:17.542Z,11.73
2023-02-09T04:46:45.696Z,11.47
2023-02-09T04:49:12.700Z,11.60
2023-02-09T04:51:39.327Z,12.47
2023-02-09T04:54:05.746Z,11.67
2023-02-09T04:56:32.146Z,11.20
2023-02-09T04:59:17.208Z,10.77
2023-02-09T05:01:43.796Z,10.93
2023-02-09T05:04:10.201Z,10.60
2023-02-09T05:06:36.584Z,10.40
2023-02-09T05:09:03.005Z,10.40
2023-02-09T05:11:29.495Z,11.17
2023-02-09T05:13:55.994Z,10.30
2023-02-09T05:16:22.500Z,10.27
2023-02-09T05:18:50.575Z,9.53
2023-02-09T05:21:17.024Z,8.80
2023-02-09T05:23:43.391Z,9.57
2023-02-09T05:26:09.925Z,9.07
2023-02-09T05:28:36.645Z,9.23
2023-02-09T05:31:03.298Z,9.07
2023-02-09T05:33:29.890Z,8.73
2023-02-09T05:35:56.361Z,9.47
2023-02-09T05:38:23.004Z,8.90
2023-02-09T05:40:49.738Z,8.90
2023-02-09T05:43:16.426Z,8.83
2023-02-09T05:45:43.801Z,9.03
2023-02-09T05:48:10.289Z,8.87
2023-02-09T05:50:37.270Z,7.80
2023-02-09T05:53:03.783Z,9.33
2023-02-09T05:55:30.351Z,7.77
2023-02-09T05:57:56.777Z,7.97
2023-02-09T06:00:25.091Z,9.10
2023-02-09T06:02:51.848Z,8.33
2023-02-09T06:05:19.903Z,8.33
2023-02-09T06:07:46.470Z,7.97
2023-02-09T06:10:12.853Z,9.17
2023-02-09T06:12:41.112Z,7.87
2023-02-09T06:15:08.228Z,8.60
2023-02-09T06:17:34.648Z,8.57
2023-02-09T06:20:01.055Z,9.07
2023-02-09T06:22:29.143Z,8.43
2023-02-09T06:24:55.634Z,8.73
2023-02-09T06:27:22.169Z,8.93
2023-02-09T06:29:48.676Z,8.30
2023-02-09T06:32:15.217Z,8.03
2023-02-09T06:34:41.635Z,8.80
2023-02-09T06:37:08.054Z,8.00
2023-02-09T06:39:34.611Z,9.17
2023-02-09T06:42:01.208Z,7.90
2023-02-09T06:44:27.739Z,8.77
2023-02-09T06:46:54.618Z,8.50
2023-02-09T06:49:23.886Z,8.93
2023-02-09T06:51:50.609Z,8.60
2023-02-09T06:54:17.223Z,8.93
2023-02-09T06:56:43.648Z,8.60
2023-02-09T06:59:10.212Z,9.07
2023-02-09T07:01:37.387Z,8.73
2023-02-09T07:04:03.830Z,8.67
2023-02-09T07:06:30.466Z,8.03
2023-02-09T07:08:56.982Z,9.87
2023-02-09T07:11:23.419Z,8.43
2023-02-09T07:13:49.876Z,9.63
2023-02-09T07:16:16.786Z,9.77
2023-02-09T07:18:43.392Z,9.37
2023-02-09T07:21:12.874Z,9.33
2023-02-09T07:23:39.309Z,9.27
2023-02-09T07:26:08.469Z,8.43
2023-02-09T07:28:35.469Z,9.13
2023-02-09T07:31:05.220Z,8.77
2023-02-09T07:33:32.176Z,9.40
2023-02-09T07:35:59.214Z,9.37
2023-02-09T07:38:26.403Z,9.87
2023-02-09T07:40:53.070Z,9.00
2023-02-09T07:43:19.657Z,8.77
2023-02-09T07:45:46.674Z,8.73
2023-02-09T07:48:13.248Z,8.63
2023-02-09T07:50:39.722Z,9.30
2023-02-09T07:53:06.319Z,9.23
2023-02-09T07:55:32.802Z,9.23
2023-02-09T07:57:59.706Z,9.73
2023-02-09T08:00:26.103Z,9.07
2023-02-09T08:02:52.773Z,9.10
2023-02-09T08:05:26.120Z,9.83
2023-02-09T08:07:52.742Z,8.60
2023-02-09T08:10:19.641Z,10.07
2023-02-09T08:13:02.059Z,9.97
2023-02-09T08:15:38.250Z,9.43
2023-02-09T08:18:10.190Z,9.63
2023-02-09T08:20:37.629Z,10.13
2023-02-09T08:23:14.984Z,9.13
2023-02-09T08:25:41.475Z,9.37
2023-02-09T08:28:08.026Z,9.13
2023-02-09T08:30:35.028Z,10.53
2023-02-09T08:33:02.165Z,10.27
2023-02-09T08:35:30.573Z,10.20
2023-02-09T08:38:00.709Z,9.70
2023-02-09T08:40:27.188Z,9.97
2023-02-09T08:42:53.934Z,10.07
2023-02-09T08:45:20.603Z,10.07
2023-02-09T08:47:47.214Z,9.80
2023-02-09T08:50:13.762Z,9.33
2023-02-09T08:52:40.276Z,10.03
2023-02-09T08:55:07.068Z,9.47
2023-02-09T08:57:43.434Z,9.77
2023-02-09T09:00:11.453Z,10.00
2023-02-09T09:02:37.910Z,10.03
2023-02-09T09:05:04.633Z,9.83
2023-02-09T09:07:31.101Z,9.67
2023-02-09T09:09:57.588Z,9.70
2023-02-09T09:12:24.266Z,9.17
2023-02-09T09:14:50.977Z,10.27
2023-02-09T09:17:17.639Z,9.90
2023-02-09T09:19:44.184Z,10.10
2023-02-09T09:22:10.642Z,9.70
2023-02-09T09:24:40.660Z,10.23
2023-02-09T09:27:08.567Z,9.90
2023-02-09T09:29:36.028Z,9.33
2023-02-09T09:32:03.008Z,9.37
2023-02-09T09:34:29.556Z,9.43
2023-02-09T09:36:55.959Z,9.43
2023-02-09T09:39:22.567Z,9.83
2023-02-09T09:41:50.372Z,9.53
2023-02-09T09:44:31.067Z,9.50
2023-02-09T09:47:01.290Z,9.67
2023-02-09T09:49:29.524Z,9.00
2023-02-09T09:52:16.821Z,9.47
2023-02-09T09:54:43.901Z,9.20
2023-02-09T09:57:38.287Z,9.10
2023-02-09T10:00:20.791Z,9.53
2023-02-09T10:02:47.771Z,9.80
2023-02-09T10:05:20.408Z,9.50
2023-02-09T10:07:54.540Z,9.57
2023-02-09T10:10:46.012Z,9.63
2023-02-09T10:13:26.393Z,9.67
2023-02-09T10:15:54.830Z,8.70
2023-02-09T10:18:25.667Z,9.90
2023-02-09T10:21:06.895Z,9.50
2023-02-09T10:23:39.482Z,9.53
2023-02-09T10:26:08.892Z,9.87
2023-02-09T10:28:43.968Z,10.77
2023-02-09T10:31:16.143Z,9.60
2023-02-09T10:33:44.661Z,9.20
2023-02-09T10:36:23.836Z,9.63
2023-02-09T10:38:52.082Z,9.13
2023-02-09T10:41:19.375Z,9.20
2023-02-09T10:43:51.153Z,9.87
2023-02-09T10:46:19.150Z,9.50
2023-02-09T10:48:46.923Z,9.87
2023-02-09T10:51:16.432Z,9.60
2023-02-09T10:54:07.524Z,9.93
2023-02-09T10:56:43.430Z,9.30
2023-02-09T10:59:36.641Z,9.63
2023-02-09T11:02:03.064Z,9.80
2023-02-09T11:04:40.444Z,10.40
2023-02-09T11:07:12.745Z,10.30
2023-02-09T11:09:50.523Z,10.20
2023-02-09T11:12:16.986Z,10.03
2023-02-09T11:14:43.906Z,9.97
2023-02-09T11:17:30.853Z,9.47
2023-02-09T11:20:20.341Z,9.93
2023-02-09T11:23:06.912Z,9.60
2023-02-09T11:25:39.199Z,10.03
2023-02-09T11:28:30.278Z,9.40
2023-02-09T11:31:15.545Z,10.40
2023-02-09T11:34:00.605Z,9.63
2023-02-09T11:36:41.278Z,10.30
2023-02-09T11:39:12.178Z,9.67
2023-02-09T11:42:02.680Z,9.93
2023-02-09T11:44:35.709Z,9.63
2023-02-09T11:47:09.864Z,9.83
2023-02-09T11:49:51.040Z,10.13
2023-02-09T11:52:39.095Z,10.00
2023-02-09T11:55:23.164Z,9.57
2023-02-09T11:57:54.296Z,9.63
2023-02-09T12:00:26.895Z,10.10
2023-02-09T12:03:05.144Z,10.50
2023-02-09T12:05:31.840Z,10.30
2023-02-09T12:08:18.444Z,10.73
2023-02-09T12:11:07.975Z,10.67
2023-02-09T12:14:02.583Z,10.23
2023-02-09T12:16:34.175Z,10.23
2023-02-09T12:19:02.045Z,9.87
2023-02-09T12:21:32.518Z,10.10
2023-02-09T12:24:00.911Z,9.77
2023-02-09T12:26:37.596Z,9.73
2023-02-09T12:29:34.090Z,9.87
2023-02-09T12:32:03.549Z,10.20
2023-02-09T12:34:47.421Z,10.00
2023-02-09T12:37:13.931Z,10.70
2023-02-09T12:40:11.340Z,9.83
2023-02-09T12:42:43.213Z,9.83
2023-02-09T12:45:30.049Z,10.73
2023-02-09T12:48:07.515Z,10.33
2023-02-09T12:50:48.802Z,10.63
2023-02-09T12:53:26.344Z,10.00
2023-02-09T12:56:09.053Z,10.57
2023-02-09T12:58:45.598Z,10.67
2023-02-09T13:01:14.007Z,10.13
2023-02-09T13:04:01.405Z,10.33
2023-02-09T13:06:36.875Z,10.20
2023-02-09T13:09:08.916Z,10.27
2023-02-09T13:12:00.387Z,11.07
2023-02-09T13:14:27.229Z,10.97
2023-02-09T13:17:05.902Z,10.90
2023-02-09T13:20:09.691Z,10.70
2023-02-09T13:23:31.754Z,10.83
2023-02-09T13:26:15.784Z,10.47
2023-02-09T13:28:42.457Z,10.03
2023-02-09T13:31:33.448Z,11.13
2023-02-09T13:34:14.252Z,9.97
2023-02-09T13:36:45.564Z,10.47
2023-02-09T13:39:22.785Z,10.73
2023-02-09T13:41:50.022Z,10.87
2023-02-09T13:44:21.569Z,11.03
2023-02-09T13:46:56.712Z,10.53
2023-02-09T13:49:24.569Z,10.20
2023-02-09T13:52:09.657Z,11.17
2023-02-09T13:54:36.311Z,11.27
2023-02-09T13:57:03.514Z,11.37
2023-02-09T13:59:30.035Z,10.10
2023-02-09T14:01:56.493Z,10.37
2023-02-09T14:04:26.387Z,10.77
2023-02-09T14:07:16.243Z,10.37
2023-02-09T14:09:54.816Z,11.10
2023-02-09T14:12:55.594Z,10.90
2023-02-09T14:15:45.471Z,11.30
2023-02-09T14:18:30.736Z,10.93
2023-02-09T14:21:15.007Z,10.90
2023-02-09T14:23:44.713Z,11.50
2023-02-09T14:26:14.152Z,12.20
2023-02-09T14:28:42.194Z,11.27
2023-02-09T14:31:20.300Z,10.80
2023-02-09T14:33:51.268Z,11.50
2023-02-09T14:36:21.479Z,10.83
2023-02-09T14:38:49.391Z,11.93
2023-02-09T14:41:30.082Z,11.10
2023-02-09T14:44:20.947Z,10.97
2023-02-09T14:46:51.715Z,11.57
2023-02-09T14:49:19.400Z,12.10
2023-02-09T14:51:47.334Z,11.80
2023-02-09T14:54:24.518Z,11.80
2023-02-09T14:56:52.721Z,11.27
2023-02-09T14:59:20.511Z,11.20
2023-02-09T15:01:48.877Z,11.30
2023-02-09T15:04:15.307Z,11.90
2023-02-09T15:06:43.388Z,13.37
2023-02-09T15:09:18.060Z,12.10
2023-02-09T15:12:03.388Z,13.43
2023-02-09T15:14:35.715Z,12.17
2023-02-09T15:17:04.464Z,12.00
2023-02-09T15:19:30.966Z,12.63
2023-02-09T15:22:07.044Z,12.30
2023-02-09T15:24:36.125Z,13.13
2023-02-09T15:27:02.822Z,13.43
2023-02-09T15:29:30.489Z,12.37
2023-02-09T15:31:57.042Z,13.13
2023-02-09T15:34:23.733Z,12.27
2023-02-09T15:36:50.210Z,12.43
2023-02-09T15:39:21.224Z,12.90
2023-02-09T15:42:26.581Z,11.90
2023-02-09T15:45:12.502Z,12.23
2023-02-09T15:47:53.394Z,13.00
2023-02-09T15:50:19.960Z,12.97
2023-02-09T15:52:46.721Z,12.73
2023-02-09T15:55:19.409Z,13.37
2023-02-09T15:57:46.011Z,13.07
2023-02-09T16:00:31.158Z,12.93
2023-02-09T16:03:00.224Z,13.07
2023-02-09T16:05:28.752Z,13.00
2023-02-09T16:07:55.660Z,12.97
2023-02-09T16:10:24.600Z,12.70
2023-02-09T16:12:51.914Z,13.00
2023-02-09T16:15:23.257Z,13.93
2023-02-09T16:17:50.602Z,12.90
2023-02-09T16:20:18.433Z,12.90
2023-02-09T16:22:47.366Z,14.23
2023-02-09T16:25:25.264Z,13.20
2023-02-09T16:27:52.874Z,12.80
2023-02-09T16:30:22.301Z,12.27
2023-02-09T16:32:49.397Z,13.53
2023-02-09T16:35:17.823Z,11.97
2023-02-09T16:37:45.764Z,13.00
2023-02-09T16:40:21.447Z,13.00
2023-02-09T16:42:48.680Z,13.67
2023-02-09T16:45:15.949Z,13.67
2023-02-09T16:47:45.863Z,13.60
2023-02-09T16:50:27.452Z,12.37
2023-02-09T16:52:56.162Z,14.13
2023-02-09T16:55:24.714Z,13.17
2023-02-09T16:57:55.053Z,14.07
2023-02-09T17:00:26.869Z,13.20
2023-02-09T17:02:59.054Z,13.07
2023-02-09T17:05:31.392Z,13.40
2023-02-09T17:08:15.148Z,13.70
2023-02-09T17:10:41.604Z,13.17
2023-02-09T17:13:08.177Z,13.60
2023-02-09T17:15:40.480Z,13.40
2023-02-09T17:18:08.583Z,14.53
2023-02-09T17:20:38.265Z,13.40
2023-02-09T17:23:04.919Z,13.10
2023-02-09T17:25:31.557Z,13.77
2023-02-09T17:27:58.143Z,13.53
2023-02-09T17:30:25.564Z,14.87
2023-02-09T17:32:59.691Z,13.93
2023-02-09T17:35:52.963Z,14.93
2023-02-09T17:38:21.241Z,14.40
2023-02-09T17:40:47.669Z,13.80
2023-02-09T17:43:14.098Z,13.43
2023-02-09T17:45:41.949Z,13.13
2023-02-09T17:48:08.825Z,13.47
2023-02-09T17:50:35.229Z,13.37
2023-02-09T17:53:01.950Z,14.23
2023-02-09T17:55:30.081Z,14.30
2023-02-09T17:57:59.038Z,14.43
2023-02-09T18:00:26.765Z,14.40
2023-02-09T18:02:53.859Z,14.37
2023-02-09T18:05:25.260Z,14.87
2023-02-09T18:07:52.578Z,14.93
2023-02-09T18:10:21.542Z,15.27
2023-02-09T18:12:50.122Z,13.47
2023-02-09T18:15:23.197Z,14.57
2023-02-09T18:17:50.125Z,13.83
2023-02-09T18:20:18.982Z,14.30
2023-02-09T18:22:45.873Z,14.40
2023-02-09T18:25:25.163Z,14.27
2023-02-09T18:27:51.743Z,14.37
2023-02-09T18:30:25.623Z,14.77
2023-02-09T18:32:52.970Z,14.40
2023-02-09T18:35:25.073Z,14.83
2023-02-09T18:37:52.336Z,15.37
2023-02-09T18:40:19.440Z,13.97
2023-02-09T18:42:46.654Z,14.73
2023-02-09T18:45:14.784Z,15.73
2023-02-09T18:47:43.010Z,15.83
2023-02-09T18:50:20.490Z,15.07
2023-02-09T18:52:49.642Z,15.33
2023-02-09T18:55:16.326Z,15.40
2023-02-09T18:57:42.864Z,16.10
2023-02-09T19:00:11.257Z,16.57
2023-02-09T19:02:37.866Z,17.43
2023-02-09T19:05:05.806Z,17.13
2023-02-09T19:07:33.995Z,16.30
2023-02-09T19:10:00.962Z,16.20
2023-02-09T19:12:28.344Z,16.03
2023-02-09T19:14:55.108Z,16.17
2023-02-09T19:17:21.592Z,17.03
2023-02-09T19:19:48.505Z,17.30
2023-02-09T19:22:21.110Z,18.20
2023-02-09T19:24:50.410Z,17.77
2023-02-09T19:27:18.912Z,17.67
2023-02-09T19:29:47.250Z,17.37
2023-02-09T19:32:14.875Z,17.77
2023-02-09T19:34:43.261Z,17.83
2023-02-09T19:37:11.191Z,18.03
2023-02-09T19:39:39.948Z,17.40
2023-02-09T19:42:06.760Z,17.90
2023-02-09T19:44:33.611Z,17.23
2023-02-09T19:47:00.308Z,16.70
2023-02-09T19:49:26.970Z,17.73
2023-02-09T19:51:53.689Z,17.90
2023-02-09T19:54:20.552Z,17.93
2023-02-09T19:56:47.254Z,18.67
2023-02-09T19:59:16.957Z,19.40
2023-02-09T20:01:43.707Z,19.77
2023-02-09T20:04:10.306Z,19.33
2023-02-09T20:06:36.778Z,18.40
2023-02-09T20:09:03.450Z,17.67
2023-02-09T20:11:29.946Z,19.40
2023-02-09T20:13:56.554Z,18.40
2023-02-09T20:16:25.274Z,18.83
2023-02-09T20:18:52.538Z,19.23
2023-02-09T20:21:20.866Z,19.33
2023-02-09T20:23:48.022Z,18.47
2023-02-09T20:26:17.326Z,19.43
2023-02-09T20:28:44.287Z,19.23
2023-02-09T20:31:11.310Z,18.43
2023-02-09T20:33:39.168Z,19.47
2023-02-09T20:36:07.321Z,20.67
2023-02-09T20:38:36.316Z,21.53
2023-02-09T20:41:03.419Z,21.33
2023-02-09T20:44:05.520Z,19.87
2023-02-09T20:46:52.122Z,21.47
2023-02-09T20:49:18.732Z,21.13
2023-02-09T20:51:46.349Z,20.57
2023-02-09T20:54:14.358Z,20.83
2023-02-09T20:56:41.119Z,21.63
2023-02-09T20:59:08.204Z,20.10
2023-02-09T21:01:37.408Z,21.87
2023-02-09T21:04:06.420Z,20.57
2023-02-09T21:06:33.949Z,21.57
2023-02-09T21:09:00.513Z,22.87
2023-02-09T21:11:27.133Z,22.00
2023-02-09T21:13:54.959Z,22.30
2023-02-09T21:16:21.838Z,22.80
2023-02-09T21:18:48.329Z,22.80
2023-02-09T21:21:16.517Z,23.50
2023-02-09T21:23:44.181Z,22.20
2023-02-09T21:26:14.312Z,23.90
2023-02-09T21:28:40.807Z,23.73
2023-02-09T21:31:12.223Z,23.57
2023-02-09T21:33:40.006Z,22.90
2023-02-09T21:36:08.074Z,23.93
2023-02-09T21:38:37.251Z,22.53
2023-02-09T21:41:35.739Z,22.97
2023-02-09T21:44:02.846Z,22.73
2023-02-09T21:46:29.425Z,24.57
2023-02-09T21:48:56.301Z,23.63
2023-02-09T21:51:22.936Z,24.80
2023-02-09T21:53:49.429Z,24.00
2023-02-09T21:56:16.274Z,24.97
2023-02-09T21:58:42.914Z,25.53
2023-02-09T22:01:12.264Z,25.87
2023-02-09T22:03:39.267Z,23.73
2023-02-09T22:06:06.814Z,23.60
2023-02-09T22:08:33.365Z,24.53
2023-02-09T22:11:01.692Z,23.33
2023-02-09T22:13:28.901Z,22.70
2023-02-09T22:15:55.806Z,22.77
2023-02-09T22:18:22.624Z,22.30
2023-02-09T22:20:50.786Z,23.00
2023-02-09T22:23:18.490Z,21.63
2023-02-09T22:25:45.098Z,22.10
2023-02-09T22:28:12.083Z,22.50
2023-02-09T22:30:38.606Z,21.27
2023-02-09T22:33:05.957Z,23.53
2023-02-09T22:35:32.493Z,21.80
2023-02-09T22:37:58.944Z,22.17
2023-02-09T22:40:25.397Z,21.90
2023-02-09T22:42:52.163Z,21.37
2023-02-09T22:45:18.872Z,22.27
2023-02-09T22:47:45.298Z,21.70
2023-02-09T22:50:12.059Z,21.83
2023-02-09T22:52:38.564Z,21.87
2023-02-09T22:55:05.409Z,22.07
2023-02-09T22:57:31.850Z,21.67
2023-02-09T22:59:58.276Z,21.53
2023-02-09T23:02:25.036Z,20.03
2023-02-09T23:04:51.449Z,23.13
2023-02-09T23:07:17.901Z,21.07
2023-02-09T23:09:44.443Z,22.53
2023-02-09T23:12:10.870Z,22.60
2023-02-09T23:14:37.328Z,22.67
2023-02-09T23:17:03.766Z,21.07
2023-02-09T23:19:30.329Z,21.27
2023-02-09T23:21:56.754Z,21.00
2023-02-09T23:24:24.582Z,21.60
2023-02-09T23:26:51.633Z,21.63
2023-02-09T23:29:18.831Z,22.93
2023-02-09T23:31:46.067Z,21.67
2023-02-09T23:34:21.132Z,21.30
2023-02-09T23:36:47.613Z,21.63
2023-02-09T23:39:17.447Z,21.60
2023-02-09T23:41:43.933Z,21.00
2023-02-09T23:44:10.987Z,22.27
2023-02-09T23:46:37.446Z,22.27
2023-02-09T23:49:03.994Z,20.80
2023-02-09T23:51:32.755Z,21.00
2023-02-09T23:54:01.762Z,21.60
2023-02-09T23:56:29.949Z,21.50
2023-02-09T23:58:56.461Z,21.17
